sensor_id;sensor_type;location;lat;lon;timestamp;P1;durP1;ratioP1;P2;durP2;ratioP2
21036;SDS011;10677;50.942;4.028;2023-05-10T00:01:48;17.52;;;8.02;;
21036;SDS011;10677;50.942;4.028;2023-05-10T00:04:14;16.00;;;8.73;;
21036;SDS011;10677;50.942;4.028;2023-05-10T00:06:39;16.27;;;8.40;;
21036;SDS011;10677;50.942;4.028;2023-05-10T00:09:05;16.67;;;8.55;;
21036;SDS011;10677;50.942;4.028;2023-05-10T00:11:31;20.02;;;8.80;;
21036;SDS011;10677;50.942;4.028;2023-05-10T00:13:57;16.67;;;8.98;;
21036;SDS011;10677;50.942;4.028;2023-05-10T00:16:22;18.77;;;9.30;;
21036;SDS011;10677;50.942;4.028;2023-05-10T00:18:48;18.90;;;9.20;;
21036;SDS011;10677;50.942;4.028;2023-05-10T00:21:14;20.70;;;9.40;;
21036;SDS011;10677;50.942;4.028;2023-05-10T00:23:39;16.92;;;8.95;;
21036;SDS011;10677;50.942;4.028;2023-05-10T00:26:05;17.88;;;10.18;;
21036;SDS011;10677;50.942;4.028;2023-05-10T00:28:31;15.60;;;9.50;;
21036;SDS011;10677;50.942;4.028;2023-05-10T00:30:56;13.73;;;8.82;;
21036;SDS011;10677;50.942;4.028;2023-05-10T00:33:22;17.10;;;9.25;;
21036;SDS011;10677;50.942;4.028;2023-05-10T00:35:48;18.45;;;9.43;;
21036;SDS011;10677;50.942;4.028;2023-05-10T00:38:13;20.30;;;10.45;;
21036;SDS011;10677;50.942;4.028;2023-05-10T00:40:39;19.48;;;10.38;;
21036;SDS011;10677;50.942;4.028;2023-05-10T00:43:05;19.10;;;9.73;;
21036;SDS011;10677;50.942;4.028;2023-05-10T00:45:32;17.70;;;10.07;;
21036;SDS011;10677;50.942;4.028;2023-05-10T00:47:59;19.27;;;10.32;;
21036;SDS011;10677;50.942;4.028;2023-05-10T00:50:27;20.20;;;11.13;;
21036;SDS011;10677;50.942;4.028;2023-05-10T00:52:53;18.30;;;10.70;;
21036;SDS011;10677;50.942;4.028;2023-05-10T00:55:20;21.50;;;11.10;;
21036;SDS011;10677;50.942;4.028;2023-05-10T00:57:46;24.15;;;11.02;;
21036;SDS011;10677;50.942;4.028;2023-05-10T01:00:13;19.10;;;11.95;;
21036;SDS011;10677;50.942;4.028;2023-05-10T01:02:43;18.60;;;11.90;;
21036;SDS011;10677;50.942;4.028;2023-05-10T01:05:12;20.80;;;12.63;;
21036;SDS011;10677;50.942;4.028;2023-05-10T01:07:38;21.52;;;12.75;;
21036;SDS011;10677;50.942;4.028;2023-05-10T01:10:05;23.65;;;12.45;;
21036;SDS011;10677;50.942;4.028;2023-05-10T01:15:05;21.63;;;13.40;;
21036;SDS011;10677;50.942;4.028;2023-05-10T01:17:33;21.25;;;12.75;;
21036;SDS011;10677;50.942;4.028;2023-05-10T01:20:00;24.70;;;13.73;;
21036;SDS011;10677;50.942;4.028;2023-05-10T01:28:21;23.17;;;13.90;;
21036;SDS011;10677;50.942;4.028;2023-05-10T01:33:47;25.40;;;14.40;;
21036;SDS011;10677;50.942;4.028;2023-05-10T01:39:10;25.65;;;14.10;;
21036;SDS011;10677;50.942;4.028;2023-05-10T01:41:51;27.60;;;15.73;;
21036;SDS011;10677;50.942;4.028;2023-05-10T01:46:57;26.80;;;15.27;;
21036;SDS011;10677;50.942;4.028;2023-05-10T01:49:30;28.30;;;16.02;;
21036;SDS011;10677;50.942;4.028;2023-05-10T01:52:03;26.00;;;15.27;;
21036;SDS011;10677;50.942;4.028;2023-05-10T01:54:32;25.27;;;15.52;;
21036;SDS011;10677;50.942;4.028;2023-05-10T01:57:00;27.73;;;15.73;;
21036;SDS011;10677;50.942;4.028;2023-05-10T01:59:30;32.20;;;16.73;;
21036;SDS011;10677;50.942;4.028;2023-05-10T02:02:01;30.20;;;16.20;;
21036;SDS011;10677;50.942;4.028;2023-05-10T02:04:29;26.65;;;16.02;;
21036;SDS011;10677;50.942;4.028;2023-05-10T02:06:58;25.67;;;14.95;;
21036;SDS011;10677;50.942;4.028;2023-05-10T02:09:24;26.90;;;16.08;;
21036;SDS011;10677;50.942;4.028;2023-05-10T02:11:52;30.13;;;15.48;;
21036;SDS011;10677;50.942;4.028;2023-05-10T02:14:20;28.45;;;14.85;;
21036;SDS011;10677;50.942;4.028;2023-05-10T02:16:46;29.67;;;15.07;;
21036;SDS011;10677;50.942;4.028;2023-05-10T02:19:13;28.75;;;15.00;;
21036;SDS011;10677;50.942;4.028;2023-05-10T02:21:39;26.60;;;15.55;;
21036;SDS011;10677;50.942;4.028;2023-05-10T02:24:07;30.02;;;16.45;;
21036;SDS011;10677;50.942;4.028;2023-05-10T02:26:34;25.33;;;14.65;;
21036;SDS011;10677;50.942;4.028;2023-05-10T02:29:03;28.45;;;14.27;;
21036;SDS011;10677;50.942;4.028;2023-05-10T02:31:33;24.38;;;14.30;;
21036;SDS011;10677;50.942;4.028;2023-05-10T02:34:00;24.83;;;15.07;;
21036;SDS011;10677;50.942;4.028;2023-05-10T02:36:27;25.70;;;14.32;;
21036;SDS011;10677;50.942;4.028;2023-05-10T02:38:54;23.63;;;14.23;;
21036;SDS011;10677;50.942;4.028;2023-05-10T02:41:21;24.65;;;15.05;;
21036;SDS011;10677;50.942;4.028;2023-05-10T02:43:50;25.88;;;15.05;;
21036;SDS011;10677;50.942;4.028;2023-05-10T02:46:18;25.77;;;15.18;;
21036;SDS011;10677;50.942;4.028;2023-05-10T02:48:44;24.60;;;14.73;;
21036;SDS011;10677;50.942;4.028;2023-05-10T02:51:10;26.55;;;14.38;;
21036;SDS011;10677;50.942;4.028;2023-05-10T02:53:40;22.02;;;14.77;;
21036;SDS011;10677;50.942;4.028;2023-05-10T02:56:11;27.35;;;15.32;;
21036;SDS011;10677;50.942;4.028;2023-05-10T02:58:45;24.20;;;14.75;;
21036;SDS011;10677;50.942;4.028;2023-05-10T03:01:11;24.55;;;14.80;;
21036;SDS011;10677;50.942;4.028;2023-05-10T03:03:37;25.33;;;14.30;;
21036;SDS011;10677;50.942;4.028;2023-05-10T03:06:02;24.40;;;14.07;;
21036;SDS011;10677;50.942;4.028;2023-05-10T03:08:28;25.77;;;14.45;;
21036;SDS011;10677;50.942;4.028;2023-05-10T03:16:58;28.98;;;14.85;;
21036;SDS011;10677;50.942;4.028;2023-05-10T03:19:37;25.13;;;13.98;;
21036;SDS011;10677;50.942;4.028;2023-05-10T03:22:08;24.77;;;14.82;;
21036;SDS011;10677;50.942;4.028;2023-05-10T03:24:36;22.10;;;14.68;;
21036;SDS011;10677;50.942;4.028;2023-05-10T03:27:04;25.88;;;14.20;;
21036;SDS011;10677;50.942;4.028;2023-05-10T03:29:31;25.77;;;14.77;;
21036;SDS011;10677;50.942;4.028;2023-05-10T03:31:58;26.63;;;15.02;;
21036;SDS011;10677;50.942;4.028;2023-05-10T03:34:25;26.77;;;15.52;;
21036;SDS011;10677;50.942;4.028;2023-05-10T03:36:51;27.75;;;14.80;;
21036;SDS011;10677;50.942;4.028;2023-05-10T03:41:51;27.38;;;15.48;;
21036;SDS011;10677;50.942;4.028;2023-05-10T03:44:17;25.08;;;15.35;;
21036;SDS011;10677;50.942;4.028;2023-05-10T03:46:43;26.40;;;15.88;;
21036;SDS011;10677;50.942;4.028;2023-05-10T03:49:09;30.65;;;17.00;;
21036;SDS011;10677;50.942;4.028;2023-05-10T03:51:35;30.58;;;17.30;;
21036;SDS011;10677;50.942;4.028;2023-05-10T03:54:00;27.45;;;16.48;;
21036;SDS011;10677;50.942;4.028;2023-05-10T03:56:27;29.60;;;16.77;;
21036;SDS011;10677;50.942;4.028;2023-05-10T03:58:54;29.42;;;16.60;;
21036;SDS011;10677;50.942;4.028;2023-05-10T04:01:20;29.48;;;18.00;;
21036;SDS011;10677;50.942;4.028;2023-05-10T04:03:45;31.13;;;18.30;;
21036;SDS011;10677;50.942;4.028;2023-05-10T04:06:11;29.52;;;17.58;;
21036;SDS011;10677;50.942;4.028;2023-05-10T04:08:37;31.63;;;17.60;;
21036;SDS011;10677;50.942;4.028;2023-05-10T04:11:09;34.05;;;19.25;;
21036;SDS011;10677;50.942;4.028;2023-05-10T04:13:35;28.58;;;18.02;;
21036;SDS011;10677;50.942;4.028;2023-05-10T04:16:01;31.02;;;18.98;;
21036;SDS011;10677;50.942;4.028;2023-05-10T04:18:27;32.28;;;19.10;;
21036;SDS011;10677;50.942;4.028;2023-05-10T04:20:53;32.80;;;19.20;;
21036;SDS011;10677;50.942;4.028;2023-05-10T04:23:19;32.83;;;19.42;;
21036;SDS011;10677;50.942;4.028;2023-05-10T04:25:44;32.30;;;18.95;;
21036;SDS011;10677;50.942;4.028;2023-05-10T04:28:10;31.85;;;18.70;;
21036;SDS011;10677;50.942;4.028;2023-05-10T04:30:35;30.80;;;18.40;;
21036;SDS011;10677;50.942;4.028;2023-05-10T04:33:01;32.35;;;19.35;;
21036;SDS011;10677;50.942;4.028;2023-05-10T04:35:27;33.05;;;18.80;;
21036;SDS011;10677;50.942;4.028;2023-05-10T04:37:53;31.73;;;17.48;;
21036;SDS011;10677;50.942;4.028;2023-05-10T04:40:19;33.47;;;17.95;;
21036;SDS011;10677;50.942;4.028;2023-05-10T04:42:45;30.48;;;18.40;;
21036;SDS011;10677;50.942;4.028;2023-05-10T04:45:11;34.70;;;19.67;;
21036;SDS011;10677;50.942;4.028;2023-05-10T04:47:39;30.90;;;18.35;;
21036;SDS011;10677;50.942;4.028;2023-05-10T04:50:05;28.98;;;17.88;;
21036;SDS011;10677;50.942;4.028;2023-05-10T04:52:32;32.33;;;18.00;;
21036;SDS011;10677;50.942;4.028;2023-05-10T04:54:57;30.35;;;17.95;;
21036;SDS011;10677;50.942;4.028;2023-05-10T04:57:23;32.63;;;18.67;;
21036;SDS011;10677;50.942;4.028;2023-05-10T04:59:49;32.42;;;18.40;;
21036;SDS011;10677;50.942;4.028;2023-05-10T05:02:15;38.22;;;18.38;;
21036;SDS011;10677;50.942;4.028;2023-05-10T05:04:41;29.02;;;18.25;;
21036;SDS011;10677;50.942;4.028;2023-05-10T05:07:07;31.10;;;19.35;;
21036;SDS011;10677;50.942;4.028;2023-05-10T05:09:33;31.45;;;17.85;;
21036;SDS011;10677;50.942;4.028;2023-05-10T05:11:58;33.13;;;18.30;;
21036;SDS011;10677;50.942;4.028;2023-05-10T05:14:24;33.05;;;18.92;;
21036;SDS011;10677;50.942;4.028;2023-05-10T05:16:50;29.50;;;17.88;;
21036;SDS011;10677;50.942;4.028;2023-05-10T05:19:17;31.73;;;19.02;;
21036;SDS011;10677;50.942;4.028;2023-05-10T05:21:42;31.80;;;18.77;;
21036;SDS011;10677;50.942;4.028;2023-05-10T05:24:08;36.35;;;19.80;;
21036;SDS011;10677;50.942;4.028;2023-05-10T05:26:35;33.20;;;19.02;;
21036;SDS011;10677;50.942;4.028;2023-05-10T05:29:01;38.65;;;20.17;;
21036;SDS011;10677;50.942;4.028;2023-05-10T05:31:27;41.25;;;21.95;;
21036;SDS011;10677;50.942;4.028;2023-05-10T05:33:53;44.05;;;23.10;;
21036;SDS011;10677;50.942;4.028;2023-05-10T05:36:19;38.47;;;21.13;;
21036;SDS011;10677;50.942;4.028;2023-05-10T05:38:45;38.08;;;21.58;;
21036;SDS011;10677;50.942;4.028;2023-05-10T05:41:10;39.97;;;20.92;;
21036;SDS011;10677;50.942;4.028;2023-05-10T05:43:36;40.20;;;22.02;;
21036;SDS011;10677;50.942;4.028;2023-05-10T05:46:02;41.17;;;22.92;;
21036;SDS011;10677;50.942;4.028;2023-05-10T05:48:29;37.75;;;21.88;;
21036;SDS011;10677;50.942;4.028;2023-05-10T05:50:55;47.08;;;22.33;;
21036;SDS011;10677;50.942;4.028;2023-05-10T05:53:21;37.58;;;21.00;;
21036;SDS011;10677;50.942;4.028;2023-05-10T05:55:51;44.42;;;21.77;;
21036;SDS011;10677;50.942;4.028;2023-05-10T05:58:24;37.83;;;21.33;;
21036;SDS011;10677;50.942;4.028;2023-05-10T06:00:50;46.38;;;25.83;;
21036;SDS011;10677;50.942;4.028;2023-05-10T06:03:19;43.90;;;22.60;;
21036;SDS011;10677;50.942;4.028;2023-05-10T06:05:46;45.35;;;22.10;;
21036;SDS011;10677;50.942;4.028;2023-05-10T06:08:11;44.50;;;23.33;;
21036;SDS011;10677;50.942;4.028;2023-05-10T06:10:37;38.10;;;21.98;;
21036;SDS011;10677;50.942;4.028;2023-05-10T06:13:04;44.55;;;24.10;;
21036;SDS011;10677;50.942;4.028;2023-05-10T06:15:30;40.30;;;22.88;;
21036;SDS011;10677;50.942;4.028;2023-05-10T06:17:57;58.72;;;34.38;;
21036;SDS011;10677;50.942;4.028;2023-05-10T06:20:23;40.28;;;23.25;;
21036;SDS011;10677;50.942;4.028;2023-05-10T06:22:49;45.78;;;22.33;;
21036;SDS011;10677;50.942;4.028;2023-05-10T06:25:14;50.13;;;23.52;;
21036;SDS011;10677;50.942;4.028;2023-05-10T06:27:43;46.35;;;22.92;;
21036;SDS011;10677;50.942;4.028;2023-05-10T06:30:09;44.30;;;21.50;;
21036;SDS011;10677;50.942;4.028;2023-05-10T06:32:38;47.28;;;22.55;;
21036;SDS011;10677;50.942;4.028;2023-05-10T06:35:04;48.05;;;22.55;;
21036;SDS011;10677;50.942;4.028;2023-05-10T06:37:32;41.35;;;21.67;;
21036;SDS011;10677;50.942;4.028;2023-05-10T06:39:59;42.97;;;22.33;;
21036;SDS011;10677;50.942;4.028;2023-05-10T06:42:25;44.63;;;23.10;;
21036;SDS011;10677;50.942;4.028;2023-05-10T06:44:52;39.95;;;21.58;;
21036;SDS011;10677;50.942;4.028;2023-05-10T06:47:18;43.20;;;21.88;;
21036;SDS011;10677;50.942;4.028;2023-05-10T06:49:45;46.50;;;22.85;;
21036;SDS011;10677;50.942;4.028;2023-05-10T06:52:11;43.45;;;19.75;;
21036;SDS011;10677;50.942;4.028;2023-05-10T06:54:37;49.25;;;19.52;;
21036;SDS011;10677;50.942;4.028;2023-05-10T06:57:02;37.72;;;19.73;;
21036;SDS011;10677;50.942;4.028;2023-05-10T06:59:29;37.17;;;18.45;;
21036;SDS011;10677;50.942;4.028;2023-05-10T07:01:55;38.20;;;17.92;;
21036;SDS011;10677;50.942;4.028;2023-05-10T07:04:21;40.83;;;19.15;;
21036;SDS011;10677;50.942;4.028;2023-05-10T07:06:47;42.75;;;18.48;;
21036;SDS011;10677;50.942;4.028;2023-05-10T07:09:14;40.08;;;19.58;;
21036;SDS011;10677;50.942;4.028;2023-05-10T07:11:40;48.78;;;19.95;;
21036;SDS011;10677;50.942;4.028;2023-05-10T07:14:06;36.97;;;18.02;;
21036;SDS011;10677;50.942;4.028;2023-05-10T07:16:32;42.58;;;18.88;;
21036;SDS011;10677;50.942;4.028;2023-05-10T07:18:58;40.90;;;18.92;;
21036;SDS011;10677;50.942;4.028;2023-05-10T07:21:23;37.50;;;18.20;;
21036;SDS011;10677;50.942;4.028;2023-05-10T07:23:54;38.42;;;17.92;;
21036;SDS011;10677;50.942;4.028;2023-05-10T07:26:19;39.35;;;19.42;;
21036;SDS011;10677;50.942;4.028;2023-05-10T07:28:46;41.88;;;17.45;;
21036;SDS011;10677;50.942;4.028;2023-05-10T07:31:12;39.53;;;18.15;;
21036;SDS011;10677;50.942;4.028;2023-05-10T07:33:38;38.40;;;18.33;;
21036;SDS011;10677;50.942;4.028;2023-05-10T07:36:03;33.13;;;18.23;;
21036;SDS011;10677;50.942;4.028;2023-05-10T07:38:29;37.13;;;18.67;;
21036;SDS011;10677;50.942;4.028;2023-05-10T07:40:55;34.22;;;17.70;;
21036;SDS011;10677;50.942;4.028;2023-05-10T07:43:21;35.67;;;17.73;;
21036;SDS011;10677;50.942;4.028;2023-05-10T07:45:47;35.13;;;17.13;;
21036;SDS011;10677;50.942;4.028;2023-05-10T07:48:13;34.78;;;17.15;;
21036;SDS011;10677;50.942;4.028;2023-05-10T07:50:39;37.38;;;16.90;;
21036;SDS011;10677;50.942;4.028;2023-05-10T07:53:05;33.72;;;16.95;;
21036;SDS011;10677;50.942;4.028;2023-05-10T07:55:30;32.60;;;16.35;;
21036;SDS011;10677;50.942;4.028;2023-05-10T07:57:56;29.67;;;15.73;;
21036;SDS011;10677;50.942;4.028;2023-05-10T08:00:22;30.35;;;15.95;;
21036;SDS011;10677;50.942;4.028;2023-05-10T08:02:47;28.75;;;15.60;;
21036;SDS011;10677;50.942;4.028;2023-05-10T08:05:13;29.02;;;15.63;;
21036;SDS011;10677;50.942;4.028;2023-05-10T08:07:39;29.30;;;15.63;;
21036;SDS011;10677;50.942;4.028;2023-05-10T08:10:05;29.80;;;14.63;;
21036;SDS011;10677;50.942;4.028;2023-05-10T08:12:31;25.38;;;15.07;;
21036;SDS011;10677;50.942;4.028;2023-05-10T08:14:57;28.25;;;14.50;;
21036;SDS011;10677;50.942;4.028;2023-05-10T08:17:22;24.88;;;13.75;;
21036;SDS011;10677;50.942;4.028;2023-05-10T08:19:48;29.73;;;13.90;;
21036;SDS011;10677;50.942;4.028;2023-05-10T08:22:14;24.52;;;13.35;;
21036;SDS011;10677;50.942;4.028;2023-05-10T08:24:41;27.73;;;12.82;;
21036;SDS011;10677;50.942;4.028;2023-05-10T08:27:10;25.40;;;12.23;;
21036;SDS011;10677;50.942;4.028;2023-05-10T08:29:36;22.27;;;12.10;;
21036;SDS011;10677;50.942;4.028;2023-05-10T08:32:02;20.25;;;11.00;;
21036;SDS011;10677;50.942;4.028;2023-05-10T08:34:28;21.08;;;10.27;;
21036;SDS011;10677;50.942;4.028;2023-05-10T08:36:56;22.40;;;10.25;;
21036;SDS011;10677;50.942;4.028;2023-05-10T08:39:22;21.33;;;11.20;;
21036;SDS011;10677;50.942;4.028;2023-05-10T08:41:48;25.77;;;11.27;;
21036;SDS011;10677;50.942;4.028;2023-05-10T08:44:16;22.83;;;10.18;;
21036;SDS011;10677;50.942;4.028;2023-05-10T08:46:44;18.30;;;10.32;;
21036;SDS011;10677;50.942;4.028;2023-05-10T08:49:13;21.20;;;10.57;;
21036;SDS011;10677;50.942;4.028;2023-05-10T08:51:43;22.65;;;11.25;;
21036;SDS011;10677;50.942;4.028;2023-05-10T08:54:14;19.70;;;10.20;;
21036;SDS011;10677;50.942;4.028;2023-05-10T08:56:40;19.85;;;10.15;;
21036;SDS011;10677;50.942;4.028;2023-05-10T08:59:06;19.48;;;10.88;;
21036;SDS011;10677;50.942;4.028;2023-05-10T09:01:32;19.85;;;10.35;;
21036;SDS011;10677;50.942;4.028;2023-05-10T09:04:03;20.88;;;11.05;;
21036;SDS011;10677;50.942;4.028;2023-05-10T09:06:29;20.33;;;12.00;;
21036;SDS011;10677;50.942;4.028;2023-05-10T09:08:55;18.05;;;10.40;;
21036;SDS011;10677;50.942;4.028;2023-05-10T09:11:21;19.27;;;11.32;;
21036;SDS011;10677;50.942;4.028;2023-05-10T09:13:48;21.52;;;10.27;;
21036;SDS011;10677;50.942;4.028;2023-05-10T09:16:15;22.65;;;11.63;;
21036;SDS011;10677;50.942;4.028;2023-05-10T09:18:41;22.48;;;10.52;;
21036;SDS011;10677;50.942;4.028;2023-05-10T09:21:10;22.40;;;11.18;;
21036;SDS011;10677;50.942;4.028;2023-05-10T09:23:36;15.43;;;8.98;;
21036;SDS011;10677;50.942;4.028;2023-05-10T09:26:03;18.35;;;10.27;;
21036;SDS011;10677;50.942;4.028;2023-05-10T09:28:32;18.38;;;8.88;;
21036;SDS011;10677;50.942;4.028;2023-05-10T09:30:58;19.33;;;9.55;;
21036;SDS011;10677;50.942;4.028;2023-05-10T09:33:24;15.20;;;8.80;;
21036;SDS011;10677;50.942;4.028;2023-05-10T09:35:51;16.42;;;9.13;;
21036;SDS011;10677;50.942;4.028;2023-05-10T09:38:17;18.58;;;9.27;;
21036;SDS011;10677;50.942;4.028;2023-05-10T09:40:45;19.38;;;8.85;;
21036;SDS011;10677;50.942;4.028;2023-05-10T09:43:20;15.60;;;9.35;;
21036;SDS011;10677;50.942;4.028;2023-05-10T09:45:46;17.83;;;10.20;;
21036;SDS011;10677;50.942;4.028;2023-05-10T09:48:14;14.02;;;9.63;;
21036;SDS011;10677;50.942;4.028;2023-05-10T09:50:40;19.88;;;10.48;;
21036;SDS011;10677;50.942;4.028;2023-05-10T09:53:07;18.73;;;10.45;;
21036;SDS011;10677;50.942;4.028;2023-05-10T09:58:06;16.38;;;9.65;;
21036;SDS011;10677;50.942;4.028;2023-05-10T10:00:45;16.08;;;10.65;;
21036;SDS011;10677;50.942;4.028;2023-05-10T10:03:19;15.23;;;9.75;;
21036;SDS011;10677;50.942;4.028;2023-05-10T10:05:46;18.20;;;10.18;;
21036;SDS011;10677;50.942;4.028;2023-05-10T10:08:13;17.13;;;10.52;;
21036;SDS011;10677;50.942;4.028;2023-05-10T10:10:40;17.40;;;9.65;;
21036;SDS011;10677;50.942;4.028;2023-05-10T10:13:06;14.23;;;9.80;;
21036;SDS011;10677;50.942;4.028;2023-05-10T10:15:33;16.33;;;10.15;;
21036;SDS011;10677;50.942;4.028;2023-05-10T10:17:59;16.98;;;10.55;;
21036;SDS011;10677;50.942;4.028;2023-05-10T10:20:25;17.00;;;10.60;;
21036;SDS011;10677;50.942;4.028;2023-05-10T10:22:52;16.70;;;10.38;;
21036;SDS011;10677;50.942;4.028;2023-05-10T10:25:18;17.65;;;11.32;;
21036;SDS011;10677;50.942;4.028;2023-05-10T10:32:59;17.55;;;11.30;;
21036;SDS011;10677;50.942;4.028;2023-05-10T10:35:34;14.02;;;10.05;;
21036;SDS011;10677;50.942;4.028;2023-05-10T10:38:00;17.35;;;10.88;;
21036;SDS011;10677;50.942;4.028;2023-05-10T10:40:28;17.00;;;11.32;;
21036;SDS011;10677;50.942;4.028;2023-05-10T10:42:56;16.45;;;11.82;;
21036;SDS011;10677;50.942;4.028;2023-05-10T10:45:24;20.50;;;11.48;;
21036;SDS011;10677;50.942;4.028;2023-05-10T10:50:55;16.85;;;10.32;;
21036;SDS011;10677;50.942;4.028;2023-05-10T10:53:28;18.35;;;11.00;;
21036;SDS011;10677;50.942;4.028;2023-05-10T10:56:05;17.05;;;10.73;;
21036;SDS011;10677;50.942;4.028;2023-05-10T10:58:36;15.98;;;10.52;;
21036;SDS011;10677;50.942;4.028;2023-05-10T11:01:16;13.90;;;10.07;;
21036;SDS011;10677;50.942;4.028;2023-05-10T11:09:00;15.85;;;10.57;;
21036;SDS011;10677;50.942;4.028;2023-05-10T11:11:34;18.23;;;10.73;;
21036;SDS011;10677;50.942;4.028;2023-05-10T11:14:05;16.70;;;10.73;;
21036;SDS011;10677;50.942;4.028;2023-05-10T11:16:42;17.00;;;10.95;;
21036;SDS011;10677;50.942;4.028;2023-05-10T11:19:10;15.93;;;9.95;;
21036;SDS011;10677;50.942;4.028;2023-05-10T11:21:50;15.82;;;10.00;;
21036;SDS011;10677;50.942;4.028;2023-05-10T11:24:36;19.50;;;9.88;;
21036;SDS011;10677;50.942;4.028;2023-05-10T11:27:02;17.63;;;10.18;;
21036;SDS011;10677;50.942;4.028;2023-05-10T11:29:28;16.98;;;10.52;;
21036;SDS011;10677;50.942;4.028;2023-05-10T11:34:24;14.25;;;9.93;;
21036;SDS011;10677;50.942;4.028;2023-05-10T11:36:52;16.55;;;10.20;;
21036;SDS011;10677;50.942;4.028;2023-05-10T11:39:20;15.20;;;9.77;;
21036;SDS011;10677;50.942;4.028;2023-05-10T11:41:49;12.93;;;9.60;;
21036;SDS011;10677;50.942;4.028;2023-05-10T11:44:15;15.77;;;10.65;;
21036;SDS011;10677;50.942;4.028;2023-05-10T11:46:41;18.02;;;10.50;;
21036;SDS011;10677;50.942;4.028;2023-05-10T11:49:07;15.48;;;9.50;;
21036;SDS011;10677;50.942;4.028;2023-05-10T11:51:33;14.00;;;9.55;;
21036;SDS011;10677;50.942;4.028;2023-05-10T11:54:08;15.95;;;9.88;;
21036;SDS011;10677;50.942;4.028;2023-05-10T11:56:36;14.68;;;9.55;;
21036;SDS011;10677;50.942;4.028;2023-05-10T11:59:03;17.17;;;10.20;;
21036;SDS011;10677;50.942;4.028;2023-05-10T12:01:29;15.38;;;10.20;;
21036;SDS011;10677;50.942;4.028;2023-05-10T12:03:57;16.65;;;10.52;;
21036;SDS011;10677;50.942;4.028;2023-05-10T12:06:28;17.30;;;10.55;;
21036;SDS011;10677;50.942;4.028;2023-05-10T12:17:18;18.08;;;10.52;;
21036;SDS011;10677;50.942;4.028;2023-05-10T12:19:44;15.65;;;10.35;;
21036;SDS011;10677;50.942;4.028;2023-05-10T12:22:09;18.60;;;11.38;;
21036;SDS011;10677;50.942;4.028;2023-05-10T12:24:36;16.13;;;10.65;;
21036;SDS011;10677;50.942;4.028;2023-05-10T12:27:07;16.65;;;11.48;;
21036;SDS011;10677;50.942;4.028;2023-05-10T12:29:33;17.50;;;10.80;;
21036;SDS011;10677;50.942;4.028;2023-05-10T12:31:59;15.80;;;10.88;;
21036;SDS011;10677;50.942;4.028;2023-05-10T12:34:25;15.40;;;10.68;;
21036;SDS011;10677;50.942;4.028;2023-05-10T12:36:57;15.63;;;10.70;;
21036;SDS011;10677;50.942;4.028;2023-05-10T12:39:23;19.10;;;12.05;;
21036;SDS011;10677;50.942;4.028;2023-05-10T12:41:51;15.38;;;11.55;;
21036;SDS011;10677;50.942;4.028;2023-05-10T12:44:17;17.83;;;11.95;;
21036;SDS011;10677;50.942;4.028;2023-05-10T12:46:43;18.10;;;11.70;;
21036;SDS011;10677;50.942;4.028;2023-05-10T12:49:09;16.85;;;11.32;;
21036;SDS011;10677;50.942;4.028;2023-05-10T12:51:35;16.52;;;11.65;;
21036;SDS011;10677;50.942;4.028;2023-05-10T12:54:02;20.20;;;13.27;;
21036;SDS011;10677;50.942;4.028;2023-05-10T12:56:27;21.02;;;12.20;;
21036;SDS011;10677;50.942;4.028;2023-05-10T12:58:53;18.33;;;12.13;;
21036;SDS011;10677;50.942;4.028;2023-05-10T13:01:19;21.85;;;12.55;;
21036;SDS011;10677;50.942;4.028;2023-05-10T13:03:45;16.55;;;11.82;;
21036;SDS011;10677;50.942;4.028;2023-05-10T13:08:53;18.85;;;12.45;;
21036;SDS011;10677;50.942;4.028;2023-05-10T13:11:20;18.25;;;12.82;;
21036;SDS011;10677;50.942;4.028;2023-05-10T13:13:46;21.30;;;12.85;;
21036;SDS011;10677;50.942;4.028;2023-05-10T13:16:13;17.30;;;13.18;;
21036;SDS011;10677;50.942;4.028;2023-05-10T13:18:39;17.98;;;12.40;;
21036;SDS011;10677;50.942;4.028;2023-05-10T13:21:06;20.10;;;13.75;;
21036;SDS011;10677;50.942;4.028;2023-05-10T13:23:33;19.35;;;13.18;;
21036;SDS011;10677;50.942;4.028;2023-05-10T13:25:59;17.95;;;12.25;;
21036;SDS011;10677;50.942;4.028;2023-05-10T13:28:25;16.23;;;12.70;;
21036;SDS011;10677;50.942;4.028;2023-05-10T13:30:51;22.00;;;12.05;;
21036;SDS011;10677;50.942;4.028;2023-05-10T13:33:17;22.30;;;12.48;;
21036;SDS011;10677;50.942;4.028;2023-05-10T13:35:43;19.65;;;13.18;;
21036;SDS011;10677;50.942;4.028;2023-05-10T13:38:09;18.58;;;12.98;;
21036;SDS011;10677;50.942;4.028;2023-05-10T13:40:35;19.80;;;14.38;;
21036;SDS011;10677;50.942;4.028;2023-05-10T13:43:01;20.85;;;13.77;;
21036;SDS011;10677;50.942;4.028;2023-05-10T13:45:27;18.52;;;13.35;;
21036;SDS011;10677;50.942;4.028;2023-05-10T13:47:52;21.95;;;13.35;;
21036;SDS011;10677;50.942;4.028;2023-05-10T13:50:18;21.30;;;13.27;;
21036;SDS011;10677;50.942;4.028;2023-05-10T13:52:44;21.20;;;13.35;;
21036;SDS011;10677;50.942;4.028;2023-05-10T13:55:09;20.50;;;12.43;;
21036;SDS011;10677;50.942;4.028;2023-05-10T13:57:37;19.60;;;13.45;;
21036;SDS011;10677;50.942;4.028;2023-05-10T14:00:03;22.83;;;14.02;;
21036;SDS011;10677;50.942;4.028;2023-05-10T14:02:30;21.25;;;14.13;;
21036;SDS011;10677;50.942;4.028;2023-05-10T14:04:56;22.70;;;15.68;;
21036;SDS011;10677;50.942;4.028;2023-05-10T14:07:22;19.95;;;14.75;;
21036;SDS011;10677;50.942;4.028;2023-05-10T14:09:48;23.42;;;15.70;;
21036;SDS011;10677;50.942;4.028;2023-05-10T14:12:13;24.23;;;15.55;;
21036;SDS011;10677;50.942;4.028;2023-05-10T14:14:39;25.35;;;16.05;;
21036;SDS011;10677;50.942;4.028;2023-05-10T14:17:05;21.65;;;14.63;;
21036;SDS011;10677;50.942;4.028;2023-05-10T14:19:31;29.92;;;16.48;;
21036;SDS011;10677;50.942;4.028;2023-05-10T14:21:58;23.95;;;15.20;;
21036;SDS011;10677;50.942;4.028;2023-05-10T14:24:24;26.40;;;16.30;;
21036;SDS011;10677;50.942;4.028;2023-05-10T14:26:50;26.38;;;15.88;;
21036;SDS011;10677;50.942;4.028;2023-05-10T14:29:18;14.43;;;9.32;;
21036;SDS011;10677;50.942;4.028;2023-05-10T14:31:45;14.57;;;8.20;;
21036;SDS011;10677;50.942;4.028;2023-05-10T14:34:10;15.40;;;7.45;;
21036;SDS011;10677;50.942;4.028;2023-05-10T14:36:36;14.32;;;7.80;;
21036;SDS011;10677;50.942;4.028;2023-05-10T14:39:02;16.05;;;6.80;;
21036;SDS011;10677;50.942;4.028;2023-05-10T14:41:27;18.60;;;8.00;;
21036;SDS011;10677;50.942;4.028;2023-05-10T14:43:55;13.30;;;7.40;;
21036;SDS011;10677;50.942;4.028;2023-05-10T14:46:20;15.02;;;7.22;;
21036;SDS011;10677;50.942;4.028;2023-05-10T14:48:46;16.55;;;6.90;;
21036;SDS011;10677;50.942;4.028;2023-05-10T14:51:12;14.05;;;6.03;;
21036;SDS011;10677;50.942;4.028;2023-05-10T14:53:37;12.18;;;6.25;;
21036;SDS011;10677;50.942;4.028;2023-05-10T14:56:03;17.35;;;6.93;;
21036;SDS011;10677;50.942;4.028;2023-05-10T14:58:29;13.52;;;6.80;;
21036;SDS011;10677;50.942;4.028;2023-05-10T15:03:33;13.75;;;6.65;;
21036;SDS011;10677;50.942;4.028;2023-05-10T15:05:58;15.02;;;7.55;;
21036;SDS011;10677;50.942;4.028;2023-05-10T15:08:24;12.90;;;6.10;;
21036;SDS011;10677;50.942;4.028;2023-05-10T15:10:50;14.65;;;6.65;;
21036;SDS011;10677;50.942;4.028;2023-05-10T15:13:16;11.68;;;7.57;;
21036;SDS011;10677;50.942;4.028;2023-05-10T15:15:42;15.15;;;7.00;;
21036;SDS011;10677;50.942;4.028;2023-05-10T15:18:09;13.20;;;7.70;;
21036;SDS011;10677;50.942;4.028;2023-05-10T15:20:35;19.02;;;8.00;;